createdAt,value
2019-04-05T00:01:05.982Z,99190.98
2019-04-05T00:03:51.759Z,99185.64
2019-04-05T00:06:38.214Z,99187.73
2019-04-05T00:09:24.742Z,99193.08
2019-04-05T00:12:10.828Z,99200.77
2019-04-05T00:14:57.463Z,99203.78
2019-04-05T00:17:43.453Z,99196.97
2019-04-05T00:20:29.909Z,99200.55
2019-04-05T00:23:17.686Z,99194.48
2019-04-05T00:26:03.686Z,99200.38
2019-04-05T00:28:51.772Z,99200.75
2019-04-05T00:31:38.795Z,99202.32
2019-04-05T00:34:25.520Z,99203.45
2019-04-05T00:37:11.562Z,99204.94
2019-04-05T00:39:58.039Z,99199.92
2019-04-05T00:42:44.551Z,99195.42
2019-04-05T00:45:31.250Z,99201.20
2019-04-05T00:48:17.655Z,99217.39
2019-04-05T00:51:04.055Z,99216.73
2019-04-05T00:53:50.147Z,99222.87
2019-04-05T00:56:36.903Z,99229.67
2019-04-05T00:59:25.427Z,99230.25
2019-04-05T01:02:12.363Z,99233.72
2019-04-05T01:04:59.995Z,99236.88
2019-04-05T01:07:46.226Z,99240.13
2019-04-05T01:10:34.186Z,99241.80
2019-04-05T01:13:21.259Z,99248.98
2019-04-05T01:16:07.355Z,99252.02
2019-04-05T01:18:53.467Z,99257.36
2019-04-05T01:21:44.467Z,99249.78
2019-04-05T01:24:31.030Z,99258.34
2019-04-05T01:27:18.571Z,99267.70
2019-04-05T01:30:06.232Z,99258.70
2019-04-05T01:32:55.133Z,99267.71
2019-04-05T01:35:41.630Z,99265.61
2019-04-05T01:38:28.581Z,99267.11
2019-04-05T01:41:14.738Z,99262.30
2019-04-05T01:44:00.843Z,99263.66
2019-04-05T01:46:47.658Z,99262.63
2019-04-05T01:49:33.954Z,99255.77
2019-04-05T01:52:20.427Z,99262.48
2019-04-05T01:55:07.883Z,99260.68
2019-04-05T01:57:54.031Z,99262.30
2019-04-05T02:00:40.067Z,99263.83
2019-04-05T02:03:26.775Z,99263.86
2019-04-05T02:06:12.767Z,99264.55
2019-04-05T02:08:58.915Z,99267.21
2019-04-05T02:11:45.271Z,99278.64
2019-04-05T02:14:32.283Z,99274.66
2019-04-05T02:17:18.111Z,99279.79
2019-04-05T02:20:05.688Z,99281.20
2019-04-05T02:22:52.000Z,99275.55
2019-04-05T02:25:38.056Z,99269.98
2019-04-05T02:28:25.581Z,99276.34
2019-04-05T02:31:12.023Z,99269.94
2019-04-05T02:33:58.010Z,99278.91
2019-04-05T02:36:44.627Z,99279.15
2019-04-05T02:39:31.021Z,99273.78
2019-04-05T02:42:18.342Z,99272.11
2019-04-05T02:45:06.684Z,99268.69
2019-04-05T02:47:57.720Z,99272.66
2019-04-05T02:50:48.043Z,99268.48
2019-04-05T02:53:35.926Z,99263.23
2019-04-05T02:56:24.700Z,99261.04
2019-04-05T02:59:12.648Z,99261.10
2019-04-05T03:01:59.875Z,99260.92
2019-04-05T03:04:46.085Z,99260.05
2019-04-05T03:07:32.484Z,99262.80
2019-04-05T03:10:54.679Z,99260.75
2019-04-05T03:13:49.361Z,99265.86
2019-04-05T03:16:41.626Z,99261.20
2019-04-05T03:19:31.166Z,99254.48
2019-04-05T03:22:18.557Z,99255.54
2019-04-05T03:25:05.896Z,99252.32
2019-04-05T03:27:52.293Z,99247.61
2019-04-05T03:30:39.050Z,99244.92
2019-04-05T03:33:25.841Z,99249.20
2019-04-05T03:36:12.619Z,99255.98
2019-04-05T03:38:59.284Z,99248.31
2019-04-05T03:41:46.203Z,99246.54
2019-04-05T03:44:32.654Z,99251.89
2019-04-05T03:47:19.127Z,99259.59
2019-04-05T03:50:05.940Z,99269.95
2019-04-05T03:52:52.420Z,99282.95
2019-04-05T03:55:38.997Z,99278.58
2019-04-05T03:58:28.775Z,99275.87
2019-04-05T04:01:15.539Z,99275.87
2019-04-05T04:04:01.998Z,99279.31
2019-04-05T04:06:48.594Z,99279.22
2019-04-05T04:09:36.543Z,99271.16
2019-04-05T04:12:30.244Z,99266.52
2019-04-05T04:15:22.592Z,99272.01
2019-04-05T04:18:09.438Z,99271.23
2019-04-05T04:21:00.726Z,99275.11
2019-04-05T04:23:46.921Z,99274.16
2019-04-05T04:26:33.804Z,99278.39
2019-04-05T04:29:21.125Z,99283.92
2019-04-05T04:32:10.998Z,99287.34
2019-04-05T04:34:58.623Z,99290.59
2019-04-05T04:37:45.568Z,99283.05
2019-04-05T04:40:35.892Z,99285.31
2019-04-05T04:43:22.493Z,99293.01
2019-04-05T04:46:11.745Z,99294.38
2019-04-05T04:48:57.979Z,99297.19
2019-04-05T04:51:44.680Z,99290.27
2019-04-05T04:54:32.804Z,99284.05
2019-04-05T04:57:19.340Z,99299.12
2019-04-05T05:00:06.383Z,99312.06
2019-04-05T05:02:53.329Z,99311.53
2019-04-05T05:05:40.154Z,99312.64
2019-04-05T05:08:26.471Z,99316.50
2019-04-05T05:11:14.652Z,99321.14
2019-04-05T05:14:01.465Z,99314.13
2019-04-05T05:16:48.224Z,99316.78
2019-04-05T05:19:35.548Z,99318.80
2019-04-05T05:22:22.127Z,99323.08
2019-04-05T05:25:08.936Z,99317.87
2019-04-05T05:27:59.516Z,99321.53
2019-04-05T05:30:45.912Z,99314.16
2019-04-05T05:33:32.585Z,99317.28
2019-04-05T05:36:20.049Z,99320.61
2019-04-05T05:39:07.326Z,99320.02
2019-04-05T05:41:54.768Z,99321.55
2019-04-05T05:44:41.276Z,99324.89
2019-04-05T05:47:27.169Z,99321.66
2019-04-05T05:50:13.696Z,99321.48
2019-04-05T05:53:01.375Z,99328.69
2019-04-05T05:55:49.332Z,99332.02
2019-04-05T05:58:36.781Z,99343.46
2019-04-05T06:01:23.492Z,99351.63
2019-04-05T06:04:12.861Z,99345.63
2019-04-05T06:06:59.411Z,99358.28
2019-04-05T06:09:49.184Z,99359.08
2019-04-05T06:12:35.628Z,99356.82
2019-04-05T06:15:22.145Z,99347.27
2019-04-05T06:18:12.047Z,99342.68
2019-04-05T06:20:58.743Z,99342.46
2019-04-05T06:23:45.176Z,99338.73
2019-04-05T06:26:33.009Z,99345.55
2019-04-05T06:29:20.321Z,99352.23
2019-04-05T06:32:07.640Z,99362.77
2019-04-05T06:34:53.755Z,99363.25
2019-04-05T06:37:40.981Z,99363.52
2019-04-05T06:40:39.709Z,99364.39
2019-04-05T06:43:15.997Z,99370.89
2019-04-05T06:46:03.077Z,99362.59
2019-04-05T06:48:59.188Z,99362.55
2019-04-05T06:51:46.489Z,99360.34
2019-04-05T06:54:32.596Z,99363.21
2019-04-05T06:57:20.801Z,99359.48
2019-04-05T07:00:07.602Z,99363.82
2019-04-05T07:02:54.157Z,99368.33
2019-04-05T07:05:42.798Z,99371.16
2019-04-05T07:08:29.289Z,99376.63
2019-04-05T07:11:15.320Z,99375.28
2019-04-05T07:14:01.737Z,99369.83
2019-04-05T07:16:48.005Z,99380.38
2019-04-05T07:19:34.394Z,99376.86
2019-04-05T07:22:35.544Z,99379.61
2019-04-05T07:25:09.137Z,99374.25
2019-04-05T07:27:55.933Z,99374.88
2019-04-05T07:30:45.053Z,99374.68
2019-04-05T07:33:31.393Z,99373.55
2019-04-05T07:36:17.593Z,99373.59
2019-04-05T07:39:06.429Z,99372.39
2019-04-05T07:41:52.764Z,99369.15
2019-04-05T07:44:39.419Z,99369.96
2019-04-05T07:47:26.191Z,99361.88
2019-04-05T07:50:13.192Z,99357.52
2019-04-05T07:52:59.293Z,99358.58
2019-04-05T07:55:46.728Z,99363.13
2019-04-05T07:58:33.111Z,99364.00
2019-04-05T08:01:19.077Z,99370.98
2019-04-05T08:04:05.983Z,99370.54
2019-04-05T08:06:53.868Z,99370.06
2019-04-05T08:09:40.845Z,99376.92
2019-04-05T08:12:28.095Z,99372.04
2019-04-05T08:15:14.139Z,99373.12
2019-04-05T08:18:00.424Z,99377.12
2019-04-05T08:20:48.929Z,99385.20
2019-04-05T08:23:34.910Z,99386.52
2019-04-05T08:26:22.174Z,99386.13
2019-04-05T08:29:08.794Z,99391.56
2019-04-05T08:31:56.070Z,99387.08
2019-04-05T08:34:42.985Z,99379.58
2019-04-05T08:37:29.693Z,99380.03
2019-04-05T08:40:19.894Z,99375.20
2019-04-05T08:43:08.641Z,99376.34
2019-04-05T08:45:57.529Z,99374.63
2019-04-05T08:48:43.717Z,99376.59
2019-04-05T08:51:31.876Z,99377.59
2019-04-05T08:54:31.518Z,99379.68
2019-04-05T08:57:07.477Z,99379.80
2019-04-05T08:59:54.624Z,99376.64
2019-04-05T09:02:48.094Z,99392.38
2019-04-05T09:05:34.414Z,99387.72
2019-04-05T09:08:21.518Z,99380.41
2019-04-05T09:11:08.701Z,99385.66
2019-04-05T09:13:56.881Z,99394.44
2019-04-05T09:16:44.693Z,99396.18
2019-04-05T09:19:31.766Z,99398.48
2019-04-05T09:22:17.939Z,99402.81
2019-04-05T09:25:04.381Z,99401.45
2019-04-05T09:28:00.333Z,99402.47
2019-04-05T09:30:56.455Z,99403.69
2019-04-05T09:33:43.080Z,99404.17
2019-04-05T09:36:29.439Z,99413.03
2019-04-05T09:39:16.026Z,99406.81
2019-04-05T09:42:03.822Z,99406.84
2019-04-05T09:44:49.921Z,99402.89
2019-04-05T09:47:36.174Z,99411.11
2019-04-05T09:50:22.846Z,99407.79
2019-04-05T09:53:09.410Z,99404.71
2019-04-05T09:55:55.609Z,99405.96
2019-04-05T09:58:42.741Z,99400.80
2019-04-05T10:01:30.914Z,99398.12
2019-04-05T10:04:35.392Z,99394.05
2019-04-05T10:07:44.195Z,99389.19
2019-04-05T10:10:25.333Z,99388.05
2019-04-05T10:13:15.645Z,99396.61
2019-04-05T10:16:04.844Z,99394.05
2019-04-05T10:18:52.243Z,99399.30
2019-04-05T10:21:43.634Z,99389.77
2019-04-05T10:24:32.930Z,99392.23
2019-04-05T10:27:23.116Z,99392.69
2019-04-05T10:30:11.018Z,99390.09
2019-04-05T10:33:05.722Z,99393.00
2019-04-05T10:36:03.433Z,99396.63
2019-04-05T10:38:49.661Z,99400.16
2019-04-05T10:41:47.016Z,99391.05
2019-04-05T10:44:33.106Z,99390.15
2019-04-05T10:47:19.226Z,99390.10
2019-04-05T10:50:08.902Z,99386.34
2019-04-05T10:52:54.794Z,99376.60
2019-04-05T10:55:40.964Z,99380.91
2019-04-05T10:58:28.070Z,99376.77
2019-04-05T11:01:15.436Z,99386.23
2019-04-05T11:04:01.755Z,99387.80
2019-04-05T11:06:48.300Z,99385.08
2019-04-05T11:09:36.691Z,99383.34
2019-04-05T11:12:25.719Z,99383.94
2019-04-05T11:15:14.994Z,99389.02
2019-04-05T11:18:04.534Z,99394.65
2019-04-05T11:20:53.868Z,99398.02
2019-04-05T11:23:42.182Z,99392.03
2019-04-05T11:26:30.501Z,99394.23
2019-04-05T11:29:18.744Z,99389.44
2019-04-05T11:32:05.015Z,99391.39
2019-04-05T11:34:52.242Z,99393.66
2019-04-05T11:37:41.603Z,99392.91
2019-04-05T11:40:28.107Z,99396.83
2019-04-05T11:43:15.342Z,99394.81
2019-04-05T11:46:03.966Z,99400.64
2019-04-05T11:48:51.227Z,99399.19
2019-04-05T11:51:43.163Z,99400.52
2019-04-05T11:54:30.006Z,99401.84
2019-04-05T11:57:16.605Z,99394.67
2019-04-05T12:00:07.167Z,99401.05
2019-04-05T12:03:01.592Z,99395.22
2019-04-05T12:05:50.424Z,99392.77
2019-04-05T12:08:39.725Z,99389.55
2019-04-05T12:11:26.828Z,99388.77
2019-04-05T12:14:14.187Z,99380.22
2019-04-05T12:17:05.266Z,99392.39
2019-04-05T12:19:49.927Z,99387.99
2019-04-05T12:22:36.230Z,99387.23
2019-04-05T12:25:22.994Z,99382.92
2019-04-05T12:28:10.687Z,99382.78
2019-04-05T12:30:57.401Z,99379.66
2019-04-05T12:33:51.344Z,99376.91
2019-04-05T12:36:36.554Z,99375.63
2019-04-05T12:39:22.613Z,99372.91
2019-04-05T12:42:11.938Z,99376.63
2019-04-05T12:44:57.643Z,99371.30
2019-04-05T12:47:46.080Z,99367.39
2019-04-05T12:50:32.840Z,99368.02
2019-04-05T12:53:29.919Z,99368.70
2019-04-05T12:56:18.351Z,99373.75
2019-04-05T12:59:05.143Z,99365.77
2019-04-05T13:01:53.679Z,99368.03
2019-04-05T13:04:45.572Z,99372.56
2019-04-05T13:07:36.613Z,99367.53
2019-04-05T13:10:26.128Z,99366.25
2019-04-05T13:13:13.216Z,99356.59
2019-04-05T13:15:59.962Z,99350.77
2019-04-05T13:18:48.631Z,99357.84
2019-04-05T13:21:35.337Z,99362.05
2019-04-05T13:24:26.053Z,99362.84
2019-04-05T13:27:14.490Z,99357.83
2019-04-05T13:30:01.211Z,99354.91
2019-04-05T13:32:48.202Z,99351.84
2019-04-05T13:35:35.170Z,99356.22
2019-04-05T13:38:21.519Z,99355.34
2019-04-05T13:41:07.627Z,99344.74
2019-04-05T13:43:54.658Z,99345.03
2019-04-05T13:46:42.734Z,99339.66
2019-04-05T13:49:31.296Z,99339.92
2019-04-05T13:52:23.529Z,99340.13
2019-04-05T13:55:11.292Z,99332.27
2019-04-05T13:58:00.639Z,99338.17
2019-04-05T14:00:48.324Z,99332.63
2019-04-05T14:03:34.655Z,99331.44
2019-04-05T14:06:21.895Z,99329.08
2019-04-05T14:09:10.230Z,99324.55
2019-04-05T14:11:59.039Z,99321.77
2019-04-05T14:14:48.015Z,99319.50
2019-04-05T14:17:35.611Z,99318.70
2019-04-05T14:20:24.393Z,99319.44
2019-04-05T14:23:13.248Z,99312.23
2019-04-05T14:26:00.418Z,99309.63
2019-04-05T14:28:47.119Z,99304.75
2019-04-05T14:31:33.252Z,99306.63
2019-04-05T14:34:23.521Z,99304.94
2019-04-05T14:37:08.148Z,99303.42
2019-04-05T14:39:54.671Z,99305.50
2019-04-05T14:42:40.524Z,99306.90
2019-04-05T14:45:27.278Z,99299.85
2019-04-05T14:48:14.092Z,99292.00
2019-04-05T14:51:00.679Z,99295.87
2019-04-05T14:53:47.051Z,99295.69
2019-04-05T14:56:33.185Z,99291.34
2019-04-05T14:59:20.507Z,99286.00
2019-04-05T15:02:07.715Z,99279.66
2019-04-05T15:04:55.475Z,99276.58
2019-04-05T15:07:42.713Z,99279.32
2019-04-05T15:10:31.267Z,99276.64
2019-04-05T15:13:17.726Z,99274.46
2019-04-05T15:16:04.277Z,99285.02
2019-04-05T15:18:51.748Z,99285.95
2019-04-05T15:21:40.591Z,99287.67
2019-04-05T15:24:27.363Z,99296.50
2019-04-05T15:27:21.324Z,99298.56
2019-04-05T15:30:06.708Z,99294.53
2019-04-05T15:32:53.003Z,99289.34
2019-04-05T15:35:39.358Z,99294.58
2019-04-05T15:38:26.063Z,99297.96
2019-04-05T15:41:15.288Z,99290.47
2019-04-05T15:44:01.448Z,99293.59
2019-04-05T15:46:47.787Z,99291.97
2019-04-05T15:49:36.918Z,99292.71
2019-04-05T15:52:22.808Z,99294.53
2019-04-05T15:55:09.078Z,99295.98
2019-04-05T15:57:56.180Z,99290.08
2019-04-05T16:00:43.562Z,99289.28
2019-04-05T16:03:33.153Z,99284.82
2019-04-05T16:06:19.602Z,99288.03
2019-04-05T16:09:07.320Z,99293.92
2019-04-05T16:11:58.783Z,99285.63
2019-04-05T16:14:45.131Z,99295.87
2019-04-05T16:17:33.630Z,99298.33
2019-04-05T16:20:20.574Z,99292.23
2019-04-05T16:23:08.368Z,99297.35
2019-04-05T16:25:54.869Z,99296.42
2019-04-05T16:28:41.534Z,99294.16
2019-04-05T16:31:28.052Z,99293.55
2019-04-05T16:34:14.937Z,99304.50
2019-04-05T16:37:00.952Z,99308.45
2019-04-05T16:39:49.196Z,99306.57
2019-04-05T16:42:35.646Z,99312.37
2019-04-05T16:45:23.399Z,99310.67
2019-04-05T16:48:10.212Z,99306.05
2019-04-05T16:50:56.860Z,99308.20
2019-04-05T16:54:02.873Z,99312.88
2019-04-05T16:56:48.967Z,99313.31
2019-04-05T16:59:36.768Z,99316.56
2019-04-05T17:02:23.006Z,99317.59
2019-04-05T17:05:09.604Z,99321.13
2019-04-05T17:07:56.454Z,99323.76
2019-04-05T17:10:43.249Z,99320.05
2019-04-05T17:13:29.777Z,99327.73
2019-04-05T17:16:16.412Z,99328.34
2019-04-05T17:19:03.685Z,99323.32
2019-04-05T17:21:51.638Z,99322.67
2019-04-05T17:24:38.308Z,99318.15
2019-04-05T17:27:24.672Z,99313.63
2019-04-05T17:30:12.314Z,99317.69
2019-04-05T17:32:58.912Z,99317.67
2019-04-05T17:35:45.139Z,99315.35
2019-04-05T17:38:31.465Z,99310.53
2019-04-05T17:41:18.136Z,99313.34
2019-04-05T17:44:04.320Z,99310.00
2019-04-05T17:46:52.975Z,99299.14
2019-04-05T17:49:39.229Z,99307.83
2019-04-05T17:52:25.157Z,99308.44
2019-04-05T17:55:12.700Z,99312.47
2019-04-05T17:58:00.068Z,99316.50
2019-04-05T18:00:46.712Z,99322.02
2019-04-05T18:03:34.168Z,99325.02
2019-04-05T18:06:20.242Z,99328.30
2019-04-05T18:09:07.904Z,99323.51
2019-04-05T18:11:55.792Z,99325.38
2019-04-05T18:14:44.619Z,99331.16
2019-04-05T18:17:31.364Z,99331.19
2019-04-05T18:20:18.076Z,99326.98
2019-04-05T18:23:05.097Z,99337.95
2019-04-05T18:25:51.363Z,99334.30
2019-04-05T18:28:43.337Z,99337.11
2019-04-05T18:31:30.011Z,99343.16
2019-04-05T18:34:17.496Z,99350.95
2019-04-05T18:37:04.133Z,99353.95
2019-04-05T18:39:52.325Z,99361.65
2019-04-05T18:42:39.038Z,99359.19
2019-04-05T18:45:28.779Z,99359.95
2019-04-05T18:48:17.981Z,99360.44
2019-04-05T18:51:07.849Z,99363.36
2019-04-05T18:53:58.057Z,99361.89
2019-04-05T18:56:44.185Z,99365.03
2019-04-05T18:59:33.395Z,99372.79
2019-04-05T19:02:21.729Z,99367.37
2019-04-05T19:05:08.062Z,99371.35
2019-04-05T19:08:03.193Z,99369.15
2019-04-05T19:10:58.328Z,99370.44
2019-04-05T19:13:45.381Z,99374.94
2019-04-05T19:16:32.114Z,99377.50
2019-04-05T19:19:18.946Z,99381.36
2019-04-05T19:22:07.437Z,99379.95
2019-04-05T19:24:54.465Z,99375.33
2019-04-05T19:27:40.792Z,99370.66
2019-04-05T19:50:07.046Z,99378.11
2019-04-05T19:52:53.830Z,99378.91
2019-04-05T19:55:40.271Z,99378.96
2019-04-05T19:58:26.663Z,99380.02
2019-04-05T20:01:13.472Z,99381.36
2019-04-05T20:03:59.740Z,99382.05
2019-04-05T20:06:46.266Z,99386.39
2019-04-05T20:09:32.800Z,99378.20
2019-04-05T20:12:19.289Z,99379.23
2019-04-05T20:15:07.112Z,99377.52
2019-04-05T20:17:53.736Z,99378.29
2019-04-05T20:20:40.819Z,99381.82
2019-04-05T20:23:26.833Z,99379.46
2019-04-05T20:26:13.542Z,99381.69
2019-04-05T20:29:00.122Z,99380.33
2019-04-05T20:31:48.275Z,99380.15
2019-04-05T20:34:34.641Z,99378.39
2019-04-05T20:37:20.962Z,99364.71
2019-04-05T20:40:07.450Z,99365.44
2019-04-05T20:42:53.978Z,99358.27
2019-04-05T20:45:40.249Z,99355.81
2019-04-05T20:48:26.646Z,99357.22
2019-04-05T20:51:16.416Z,99345.37
2019-04-05T20:54:02.848Z,99335.00
2019-04-05T20:56:49.823Z,99338.52
2019-04-05T20:59:36.695Z,99338.41
2019-04-05T21:02:22.859Z,99341.48
2019-04-05T21:05:09.308Z,99342.00
2019-04-05T21:07:55.952Z,99333.15
2019-04-05T21:10:42.057Z,99322.08
2019-04-05T21:13:28.078Z,99324.42
2019-04-05T21:16:14.793Z,99316.05
2019-04-05T21:19:00.894Z,99315.80
2019-04-05T21:21:47.157Z,99321.38
2019-04-05T21:24:36.311Z,99327.68
2019-04-05T21:27:21.680Z,99328.78
2019-04-05T21:30:08.498Z,99333.70
2019-04-05T21:32:57.873Z,99339.05
2019-04-05T21:35:46.008Z,99339.80
2019-04-05T21:38:32.424Z,99335.67
2019-04-05T21:41:19.754Z,99344.44
2019-04-05T21:44:06.191Z,99348.89
2019-04-05T21:46:52.383Z,99348.56
2019-04-05T21:49:38.699Z,99362.02
2019-04-05T21:52:24.723Z,99365.14
2019-04-05T21:55:11.225Z,99360.39
2019-04-05T21:57:58.174Z,99364.33
2019-04-05T22:00:50.028Z,99350.89
2019-04-05T22:03:35.981Z,99343.91
2019-04-05T22:06:24.153Z,99340.13
2019-04-05T22:09:10.357Z,99340.16
2019-04-05T22:11:56.817Z,99337.95
2019-04-05T22:14:43.609Z,99334.75
2019-04-05T22:17:29.923Z,99327.56
2019-04-05T22:20:16.223Z,99333.94
2019-04-05T22:23:03.129Z,99323.96
2019-04-05T22:25:49.425Z,99330.92
2019-04-05T22:28:35.721Z,99333.19
2019-04-05T22:31:22.857Z,99334.33
2019-04-05T22:34:09.325Z,99333.81
2019-04-05T22:36:55.845Z,99337.34
2019-04-05T22:39:42.709Z,99342.98
2019-04-05T22:42:28.749Z,99343.18
2019-04-05T22:45:15.065Z,99340.55
2019-04-05T22:48:01.346Z,99337.05
2019-04-05T22:50:47.657Z,99334.14
2019-04-05T22:53:33.755Z,99331.11
2019-04-05T22:56:20.620Z,99327.25
2019-04-05T22:59:06.954Z,99333.80
2019-04-05T23:01:53.114Z,99334.73
2019-04-05T23:04:39.757Z,99339.30
2019-04-05T23:07:26.269Z,99335.44
2019-04-05T23:10:12.580Z,99340.49
2019-04-05T23:12:59.269Z,99344.48
2019-04-05T23:15:45.313Z,99343.18
2019-04-05T23:18:31.871Z,99347.51
2019-04-05T23:21:18.270Z,99353.23
2019-04-05T23:24:04.369Z,99342.98
2019-04-05T23:26:50.663Z,99353.17
2019-04-05T23:29:37.678Z,99341.44
2019-04-05T23:32:25.000Z,99345.29
2019-04-05T23:35:13.465Z,99343.66
2019-04-05T23:38:00.153Z,99350.53
2019-04-05T23:40:46.337Z,99344.67
2019-04-05T23:43:38.094Z,99340.28
2019-04-05T23:46:25.770Z,99338.88
2019-04-05T23:49:12.641Z,99342.30
2019-04-05T23:51:59.347Z,99343.25
2019-04-05T23:54:50.926Z,99337.24
2019-04-05T23:57:37.490Z,99328.17
